sensor_id;sensor_type;location;lat;lon;timestamp;P1;durP1;ratioP1;P2;durP2;ratioP2
40959;SDS011;27842;52.272;8.052;2023-01-10T00:02:20;14.17;;;4.07;;
40959;SDS011;27842;52.272;8.052;2023-01-10T00:04:46;11.90;;;3.87;;
40959;SDS011;27842;52.272;8.052;2023-01-10T00:07:11;14.93;;;3.73;;
40959;SDS011;27842;52.272;8.052;2023-01-10T00:09:37;14.07;;;4.00;;
40959;SDS011;27842;52.272;8.052;2023-01-10T00:12:02;11.13;;;3.37;;
40959;SDS011;27842;52.272;8.052;2023-01-10T00:14:46;18.87;;;5.60;;
40959;SDS011;27842;52.272;8.052;2023-01-10T00:17:12;13.47;;;3.67;;
40959;SDS011;27842;52.272;8.052;2023-01-10T00:19:37;12.27;;;3.47;;
40959;SDS011;27842;52.272;8.052;2023-01-10T00:22:03;17.07;;;3.70;;
40959;SDS011;27842;52.272;8.052;2023-01-10T00:24:29;13.87;;;2.97;;
40959;SDS011;27842;52.272;8.052;2023-01-10T00:26:55;10.53;;;3.00;;
40959;SDS011;27842;52.272;8.052;2023-01-10T00:29:21;9.67;;;2.50;;
40959;SDS011;27842;52.272;8.052;2023-01-10T00:31:51;12.40;;;2.53;;
40959;SDS011;27842;52.272;8.052;2023-01-10T00:34:17;12.27;;;2.87;;
40959;SDS011;27842;52.272;8.052;2023-01-10T00:36:43;5.80;;;1.90;;
40959;SDS011;27842;52.272;8.052;2023-01-10T00:39:11;9.40;;;2.33;;
40959;SDS011;27842;52.272;8.052;2023-01-10T00:41:37;7.90;;;2.13;;
40959;SDS011;27842;52.272;8.052;2023-01-10T00:44:21;9.43;;;1.80;;
40959;SDS011;27842;52.272;8.052;2023-01-10T00:46:47;7.77;;;2.00;;
40959;SDS011;27842;52.272;8.052;2023-01-10T00:49:12;7.60;;;1.80;;
40959;SDS011;27842;52.272;8.052;2023-01-10T00:51:40;11.20;;;2.33;;
40959;SDS011;27842;52.272;8.052;2023-01-10T00:54:07;8.53;;;1.97;;
40959;SDS011;27842;52.272;8.052;2023-01-10T00:56:33;10.40;;;2.17;;
40959;SDS011;27842;52.272;8.052;2023-01-10T00:58:59;12.20;;;2.60;;
40959;SDS011;27842;52.272;8.052;2023-01-10T01:01:24;7.23;;;2.33;;
40959;SDS011;27842;52.272;8.052;2023-01-10T01:03:50;11.20;;;2.97;;
40959;SDS011;27842;52.272;8.052;2023-01-10T01:06:15;10.97;;;3.10;;
40959;SDS011;27842;52.272;8.052;2023-01-10T01:08:41;13.20;;;3.67;;
40959;SDS011;27842;52.272;8.052;2023-01-10T01:11:07;12.93;;;3.50;;
40959;SDS011;27842;52.272;8.052;2023-01-10T01:13:32;13.13;;;3.63;;
40959;SDS011;27842;52.272;8.052;2023-01-10T01:15:58;13.50;;;3.57;;
40959;SDS011;27842;52.272;8.052;2023-01-10T01:18:24;9.80;;;3.33;;
40959;SDS011;27842;52.272;8.052;2023-01-10T01:20:51;13.97;;;4.40;;
40959;SDS011;27842;52.272;8.052;2023-01-10T01:23:21;17.10;;;3.77;;
40959;SDS011;27842;52.272;8.052;2023-01-10T01:25:51;13.30;;;3.37;;
40959;SDS011;27842;52.272;8.052;2023-01-10T01:28:17;13.37;;;3.30;;
40959;SDS011;27842;52.272;8.052;2023-01-10T01:30:43;14.60;;;3.33;;
40959;SDS011;27842;52.272;8.052;2023-01-10T01:33:09;13.40;;;3.53;;
40959;SDS011;27842;52.272;8.052;2023-01-10T01:35:34;13.33;;;3.80;;
40959;SDS011;27842;52.272;8.052;2023-01-10T01:38:00;15.47;;;4.90;;
40959;SDS011;27842;52.272;8.052;2023-01-10T01:40:26;11.80;;;3.73;;
40959;SDS011;27842;52.272;8.052;2023-01-10T01:42:51;18.13;;;4.27;;
40959;SDS011;27842;52.272;8.052;2023-01-10T01:47:53;15.80;;;4.25;;
40959;SDS011;27842;52.272;8.052;2023-01-10T01:50:31;16.73;;;5.10;;
40959;SDS011;27842;52.272;8.052;2023-01-10T01:53:03;18.10;;;4.93;;
40959;SDS011;27842;52.272;8.052;2023-01-10T01:55:34;18.27;;;4.73;;
40959;SDS011;27842;52.272;8.052;2023-01-10T01:58:02;22.30;;;5.70;;
40959;SDS011;27842;52.272;8.052;2023-01-10T02:00:32;21.43;;;5.93;;
40959;SDS011;27842;52.272;8.052;2023-01-10T02:02:59;17.97;;;5.33;;
40959;SDS011;27842;52.272;8.052;2023-01-10T03:33:44;18.80;;;5.33;;
40959;SDS011;27842;52.272;8.052;2023-01-10T03:38:56;17.50;;;4.80;;
40959;SDS011;27842;52.272;8.052;2023-01-10T03:41:41;20.97;;;5.53;;
40959;SDS011;27842;52.272;8.052;2023-01-10T03:44:41;19.03;;;5.23;;
40959;SDS011;27842;52.272;8.052;2023-01-10T03:50:02;22.43;;;5.40;;
40959;SDS011;27842;52.272;8.052;2023-01-10T03:52:34;23.53;;;5.50;;
40959;SDS011;27842;52.272;8.052;2023-01-10T03:55:01;24.73;;;6.47;;
40959;SDS011;27842;52.272;8.052;2023-01-10T03:57:27;24.07;;;5.87;;
40959;SDS011;27842;52.272;8.052;2023-01-10T03:59:54;24.23;;;5.80;;
40959;SDS011;27842;52.272;8.052;2023-01-10T04:02:27;20.90;;;5.37;;
40959;SDS011;27842;52.272;8.052;2023-01-10T04:04:54;20.87;;;5.60;;
40959;SDS011;27842;52.272;8.052;2023-01-10T04:07:20;25.17;;;6.37;;
40959;SDS011;27842;52.272;8.052;2023-01-10T04:09:47;17.80;;;5.00;;
40959;SDS011;27842;52.272;8.052;2023-01-10T04:12:12;20.10;;;5.83;;
40959;SDS011;27842;52.272;8.052;2023-01-10T04:14:38;20.83;;;5.57;;
40959;SDS011;27842;52.272;8.052;2023-01-10T04:17:03;21.53;;;5.03;;
40959;SDS011;27842;52.272;8.052;2023-01-10T04:19:29;17.60;;;5.20;;
40959;SDS011;27842;52.272;8.052;2023-01-10T04:21:55;18.20;;;5.27;;
40959;SDS011;27842;52.272;8.052;2023-01-10T04:24:20;22.97;;;5.40;;
40959;SDS011;27842;52.272;8.052;2023-01-10T04:26:46;18.50;;;5.20;;
40959;SDS011;27842;52.272;8.052;2023-01-10T04:29:12;22.63;;;5.50;;
40959;SDS011;27842;52.272;8.052;2023-01-10T04:31:38;28.77;;;5.77;;
40959;SDS011;27842;52.272;8.052;2023-01-10T04:34:06;21.47;;;5.13;;
40959;SDS011;27842;52.272;8.052;2023-01-10T04:36:33;23.97;;;5.23;;
40959;SDS011;27842;52.272;8.052;2023-01-10T04:38:58;23.30;;;6.27;;
40959;SDS011;27842;52.272;8.052;2023-01-10T04:41:24;19.73;;;5.33;;
40959;SDS011;27842;52.272;8.052;2023-01-10T04:43:50;16.50;;;4.77;;
40959;SDS011;27842;52.272;8.052;2023-01-10T04:46:16;21.03;;;5.30;;
40959;SDS011;27842;52.272;8.052;2023-01-10T04:48:41;21.67;;;5.23;;
40959;SDS011;27842;52.272;8.052;2023-01-10T04:51:07;19.73;;;5.90;;
40959;SDS011;27842;52.272;8.052;2023-01-10T04:53:33;23.47;;;5.37;;
40959;SDS011;27842;52.272;8.052;2023-01-10T04:56:05;19.60;;;4.87;;
40959;SDS011;27842;52.272;8.052;2023-01-10T04:58:33;21.70;;;5.33;;
40959;SDS011;27842;52.272;8.052;2023-01-10T05:01:05;20.20;;;5.00;;
40959;SDS011;27842;52.272;8.052;2023-01-10T05:03:35;21.90;;;4.53;;
40959;SDS011;27842;52.272;8.052;2023-01-10T05:06:00;25.17;;;4.93;;
40959;SDS011;27842;52.272;8.052;2023-01-10T05:08:26;23.67;;;5.17;;
40959;SDS011;27842;52.272;8.052;2023-01-10T05:10:52;19.43;;;4.73;;
40959;SDS011;27842;52.272;8.052;2023-01-10T05:13:17;19.40;;;5.37;;
40959;SDS011;27842;52.272;8.052;2023-01-10T05:15:43;21.70;;;5.10;;
40959;SDS011;27842;52.272;8.052;2023-01-10T05:18:08;23.20;;;5.00;;
40959;SDS011;27842;52.272;8.052;2023-01-10T05:20:34;18.50;;;5.27;;
40959;SDS011;27842;52.272;8.052;2023-01-10T05:22:59;23.00;;;5.93;;
40959;SDS011;27842;52.272;8.052;2023-01-10T05:25:25;21.13;;;5.43;;
40959;SDS011;27842;52.272;8.052;2023-01-10T05:27:50;26.27;;;4.97;;
40959;SDS011;27842;52.272;8.052;2023-01-10T05:30:16;22.23;;;5.00;;
40959;SDS011;27842;52.272;8.052;2023-01-10T05:32:41;23.87;;;5.77;;
40959;SDS011;27842;52.272;8.052;2023-01-10T05:35:07;19.50;;;5.27;;
40959;SDS011;27842;52.272;8.052;2023-01-10T05:37:33;21.07;;;6.00;;
40959;SDS011;27842;52.272;8.052;2023-01-10T05:39:59;20.60;;;4.93;;
40959;SDS011;27842;52.272;8.052;2023-01-10T05:42:24;21.20;;;5.30;;
40959;SDS011;27842;52.272;8.052;2023-01-10T05:44:50;27.27;;;6.17;;
40959;SDS011;27842;52.272;8.052;2023-01-10T05:47:15;20.00;;;5.03;;
40959;SDS011;27842;52.272;8.052;2023-01-10T05:49:41;19.50;;;5.20;;
40959;SDS011;27842;52.272;8.052;2023-01-10T05:52:06;21.50;;;5.47;;
40959;SDS011;27842;52.272;8.052;2023-01-10T05:54:32;18.63;;;5.20;;
40959;SDS011;27842;52.272;8.052;2023-01-10T05:56:57;20.27;;;4.57;;
40959;SDS011;27842;52.272;8.052;2023-01-10T05:59:23;19.70;;;4.37;;
40959;SDS011;27842;52.272;8.052;2023-01-10T06:01:48;22.33;;;5.20;;
40959;SDS011;27842;52.272;8.052;2023-01-10T06:04:14;18.77;;;4.83;;
40959;SDS011;27842;52.272;8.052;2023-01-10T06:06:40;17.03;;;4.70;;
40959;SDS011;27842;52.272;8.052;2023-01-10T06:09:06;21.90;;;5.10;;
40959;SDS011;27842;52.272;8.052;2023-01-10T06:11:31;19.07;;;4.83;;
40959;SDS011;27842;52.272;8.052;2023-01-10T06:14:00;21.65;;;5.20;;
40959;SDS011;27842;52.272;8.052;2023-01-10T06:16:26;20.50;;;5.00;;
40959;SDS011;27842;52.272;8.052;2023-01-10T06:18:52;20.10;;;5.40;;
40959;SDS011;27842;52.272;8.052;2023-01-10T06:21:18;16.93;;;4.93;;
40959;SDS011;27842;52.272;8.052;2023-01-10T06:23:45;19.50;;;5.37;;
40959;SDS011;27842;52.272;8.052;2023-01-10T06:26:10;18.40;;;5.13;;
40959;SDS011;27842;52.272;8.052;2023-01-10T06:28:36;21.63;;;5.23;;
40959;SDS011;27842;52.272;8.052;2023-01-10T06:31:02;16.83;;;4.90;;
40959;SDS011;27842;52.272;8.052;2023-01-10T06:33:27;19.60;;;6.23;;
40959;SDS011;27842;52.272;8.052;2023-01-10T06:35:53;21.77;;;5.80;;
40959;SDS011;27842;52.272;8.052;2023-01-10T06:38:18;25.40;;;6.73;;
40959;SDS011;27842;52.272;8.052;2023-01-10T06:40:44;19.97;;;5.97;;
40959;SDS011;27842;52.272;8.052;2023-01-10T06:43:10;20.87;;;5.97;;
40959;SDS011;27842;52.272;8.052;2023-01-10T06:45:35;24.33;;;5.67;;
40959;SDS011;27842;52.272;8.052;2023-01-10T06:48:01;22.23;;;6.63;;
40959;SDS011;27842;52.272;8.052;2023-01-10T06:50:26;19.73;;;5.87;;
40959;SDS011;27842;52.272;8.052;2023-01-10T06:52:59;20.23;;;5.53;;
40959;SDS011;27842;52.272;8.052;2023-01-10T06:55:26;23.60;;;6.93;;
40959;SDS011;27842;52.272;8.052;2023-01-10T06:57:56;21.73;;;7.10;;
40959;SDS011;27842;52.272;8.052;2023-01-10T07:00:23;30.23;;;8.13;;
40959;SDS011;27842;52.272;8.052;2023-01-10T07:02:50;22.97;;;7.03;;
40959;SDS011;27842;52.272;8.052;2023-01-10T07:05:15;21.70;;;6.13;;
40959;SDS011;27842;52.272;8.052;2023-01-10T07:07:41;21.50;;;6.10;;
40959;SDS011;27842;52.272;8.052;2023-01-10T07:10:06;18.80;;;6.40;;
40959;SDS011;27842;52.272;8.052;2023-01-10T07:12:33;19.73;;;6.27;;
40959;SDS011;27842;52.272;8.052;2023-01-10T07:14:58;20.93;;;5.80;;
40959;SDS011;27842;52.272;8.052;2023-01-10T07:17:24;30.03;;;6.53;;
40959;SDS011;27842;52.272;8.052;2023-01-10T07:19:49;27.70;;;7.37;;
40959;SDS011;27842;52.272;8.052;2023-01-10T07:22:15;24.07;;;5.80;;
40959;SDS011;27842;52.272;8.052;2023-01-10T07:24:40;21.30;;;6.30;;
40959;SDS011;27842;52.272;8.052;2023-01-10T07:27:06;19.07;;;6.07;;
40959;SDS011;27842;52.272;8.052;2023-01-10T07:29:32;21.30;;;6.37;;
40959;SDS011;27842;52.272;8.052;2023-01-10T07:31:58;21.00;;;6.17;;
40959;SDS011;27842;52.272;8.052;2023-01-10T07:34:23;23.03;;;6.97;;
40959;SDS011;27842;52.272;8.052;2023-01-10T07:36:49;21.07;;;6.57;;
40959;SDS011;27842;52.272;8.052;2023-01-10T07:39:14;23.93;;;7.63;;
40959;SDS011;27842;52.272;8.052;2023-01-10T07:41:40;24.50;;;7.30;;
40959;SDS011;27842;52.272;8.052;2023-01-10T07:44:05;25.17;;;7.10;;
40959;SDS011;27842;52.272;8.052;2023-01-10T07:46:31;27.87;;;7.30;;
40959;SDS011;27842;52.272;8.052;2023-01-10T07:48:57;20.83;;;7.00;;
40959;SDS011;27842;52.272;8.052;2023-01-10T07:51:22;23.70;;;7.57;;
40959;SDS011;27842;52.272;8.052;2023-01-10T07:53:48;25.07;;;7.37;;
40959;SDS011;27842;52.272;8.052;2023-01-10T07:56:13;27.13;;;7.80;;
40959;SDS011;27842;52.272;8.052;2023-01-10T07:58:39;26.83;;;7.60;;
40959;SDS011;27842;52.272;8.052;2023-01-10T08:01:05;23.23;;;7.67;;
40959;SDS011;27842;52.272;8.052;2023-01-10T08:03:31;25.60;;;7.40;;
40959;SDS011;27842;52.272;8.052;2023-01-10T08:06:01;24.97;;;7.07;;
40959;SDS011;27842;52.272;8.052;2023-01-10T08:08:32;23.17;;;7.27;;
40959;SDS011;27842;52.272;8.052;2023-01-10T08:10:58;21.83;;;7.80;;
40959;SDS011;27842;52.272;8.052;2023-01-10T08:13:26;26.90;;;7.57;;
40959;SDS011;27842;52.272;8.052;2023-01-10T08:15:52;25.80;;;7.97;;
40959;SDS011;27842;52.272;8.052;2023-01-10T08:18:19;25.10;;;7.20;;
40959;SDS011;27842;52.272;8.052;2023-01-10T08:20:52;26.57;;;7.30;;
40959;SDS011;27842;52.272;8.052;2023-01-10T08:23:20;26.33;;;8.07;;
40959;SDS011;27842;52.272;8.052;2023-01-10T08:25:45;27.80;;;8.10;;
40959;SDS011;27842;52.272;8.052;2023-01-10T08:28:11;25.87;;;7.83;;
40959;SDS011;27842;52.272;8.052;2023-01-10T08:30:38;25.90;;;8.10;;
40959;SDS011;27842;52.272;8.052;2023-01-10T08:33:04;24.77;;;7.33;;
40959;SDS011;27842;52.272;8.052;2023-01-10T08:35:38;29.67;;;8.10;;
40959;SDS011;27842;52.272;8.052;2023-01-10T08:38:06;21.47;;;6.97;;
40959;SDS011;27842;52.272;8.052;2023-01-10T08:40:32;22.90;;;7.63;;
40959;SDS011;27842;52.272;8.052;2023-01-10T08:42:58;26.73;;;7.40;;
40959;SDS011;27842;52.272;8.052;2023-01-10T08:45:25;30.00;;;8.10;;
40959;SDS011;27842;52.272;8.052;2023-01-10T08:47:52;31.87;;;8.33;;
40959;SDS011;27842;52.272;8.052;2023-01-10T08:50:18;27.27;;;7.67;;
40959;SDS011;27842;52.272;8.052;2023-01-10T08:52:43;25.90;;;7.20;;
40959;SDS011;27842;52.272;8.052;2023-01-10T08:55:09;33.50;;;7.37;;
40959;SDS011;27842;52.272;8.052;2023-01-10T08:57:35;26.87;;;6.80;;
40959;SDS011;27842;52.272;8.052;2023-01-10T09:00:01;24.73;;;7.20;;
40959;SDS011;27842;52.272;8.052;2023-01-10T09:02:27;29.10;;;9.00;;
40959;SDS011;27842;52.272;8.052;2023-01-10T09:04:53;28.93;;;8.63;;
40959;SDS011;27842;52.272;8.052;2023-01-10T09:07:18;31.50;;;8.13;;
40959;SDS011;27842;52.272;8.052;2023-01-10T09:09:44;27.17;;;8.07;;
40959;SDS011;27842;52.272;8.052;2023-01-10T09:12:09;29.87;;;8.47;;
40959;SDS011;27842;52.272;8.052;2023-01-10T09:14:53;28.47;;;8.47;;
40959;SDS011;27842;52.272;8.052;2023-01-10T09:17:19;28.87;;;9.50;;
40959;SDS011;27842;52.272;8.052;2023-01-10T09:19:45;30.90;;;9.43;;
40959;SDS011;27842;52.272;8.052;2023-01-10T09:22:12;27.63;;;8.53;;
40959;SDS011;27842;52.272;8.052;2023-01-10T09:24:38;31.20;;;10.30;;
40959;SDS011;27842;52.272;8.052;2023-01-10T09:27:03;29.93;;;9.07;;
40959;SDS011;27842;52.272;8.052;2023-01-10T09:29:29;27.83;;;8.83;;
40959;SDS011;27842;52.272;8.052;2023-01-10T09:31:54;31.43;;;9.23;;
40959;SDS011;27842;52.272;8.052;2023-01-10T09:34:20;33.87;;;8.57;;
40959;SDS011;27842;52.272;8.052;2023-01-10T09:36:46;23.37;;;8.40;;
40959;SDS011;27842;52.272;8.052;2023-01-10T09:39:12;29.93;;;9.17;;
40959;SDS011;27842;52.272;8.052;2023-01-10T09:41:46;29.03;;;8.87;;
40959;SDS011;27842;52.272;8.052;2023-01-10T09:44:50;26.80;;;9.63;;
40959;SDS011;27842;52.272;8.052;2023-01-10T09:48:03;30.33;;;8.70;;
40959;SDS011;27842;52.272;8.052;2023-01-10T09:53:28;30.77;;;10.20;;
40959;SDS011;27842;52.272;8.052;2023-01-10T09:55:57;27.70;;;8.68;;
40959;SDS011;27842;52.272;8.052;2023-01-10T09:58:26;30.53;;;9.20;;
40959;SDS011;27842;52.272;8.052;2023-01-10T10:00:59;30.47;;;9.60;;
40959;SDS011;27842;52.272;8.052;2023-01-10T10:03:44;28.47;;;8.73;;
40959;SDS011;27842;52.272;8.052;2023-01-10T10:06:18;29.63;;;9.70;;
40959;SDS011;27842;52.272;8.052;2023-01-10T10:08:46;28.63;;;9.30;;
40959;SDS011;27842;52.272;8.052;2023-01-10T10:25:18;35.83;;;10.33;;
40959;SDS011;27842;52.272;8.052;2023-01-10T10:28:00;30.93;;;11.07;;
40959;SDS011;27842;52.272;8.052;2023-01-10T10:31:13;37.20;;;11.23;;
40959;SDS011;27842;52.272;8.052;2023-01-10T10:37:10;33.17;;;10.27;;
40959;SDS011;27842;52.272;8.052;2023-01-10T10:39:44;33.57;;;10.30;;
40959;SDS011;27842;52.272;8.052;2023-01-10T10:42:16;30.50;;;10.57;;
40959;SDS011;27842;52.272;8.052;2023-01-10T10:45:05;33.07;;;10.03;;
40959;SDS011;27842;52.272;8.052;2023-01-10T10:47:41;23.60;;;7.47;;
40959;SDS011;27842;52.272;8.052;2023-01-10T10:52:39;31.70;;;8.83;;
40959;SDS011;27842;52.272;8.052;2023-01-10T10:55:11;34.17;;;9.17;;
40959;SDS011;27842;52.272;8.052;2023-01-10T10:57:38;28.37;;;9.40;;
40959;SDS011;27842;52.272;8.052;2023-01-10T11:00:06;27.23;;;8.00;;
40959;SDS011;27842;52.272;8.052;2023-01-10T11:02:39;25.60;;;7.90;;
40959;SDS011;27842;52.272;8.052;2023-01-10T11:05:14;28.63;;;8.30;;
40959;SDS011;27842;52.272;8.052;2023-01-10T11:07:45;26.83;;;8.33;;
40959;SDS011;27842;52.272;8.052;2023-01-10T11:10:22;29.03;;;7.80;;
40959;SDS011;27842;52.272;8.052;2023-01-10T11:13:03;27.45;;;8.05;;
40959;SDS011;27842;52.272;8.052;2023-01-10T11:15:48;31.00;;;7.97;;
40959;SDS011;27842;52.272;8.052;2023-01-10T11:18:18;32.97;;;7.83;;
40959;SDS011;27842;52.272;8.052;2023-01-10T11:21:06;29.43;;;8.10;;
40959;SDS011;27842;52.272;8.052;2023-01-10T11:28:48;33.40;;;9.27;;
40959;SDS011;27842;52.272;8.052;2023-01-10T11:31:24;31.13;;;8.80;;
40959;SDS011;27842;52.272;8.052;2023-01-10T11:33:51;28.10;;;7.43;;
40959;SDS011;27842;52.272;8.052;2023-01-10T11:36:17;29.83;;;8.07;;
40959;SDS011;27842;52.272;8.052;2023-01-10T11:38:44;30.50;;;9.20;;
40959;SDS011;27842;52.272;8.052;2023-01-10T11:41:25;31.80;;;10.20;;
40959;SDS011;27842;52.272;8.052;2023-01-10T11:44:00;31.30;;;11.07;;
40959;SDS011;27842;52.272;8.052;2023-01-10T11:46:46;28.77;;;10.20;;
40959;SDS011;27842;52.272;8.052;2023-01-10T11:49:14;31.67;;;9.47;;
40959;SDS011;27842;52.272;8.052;2023-01-10T11:51:49;30.23;;;10.67;;
40959;SDS011;27842;52.272;8.052;2023-01-10T11:54:26;37.80;;;12.77;;
40959;SDS011;27842;52.272;8.052;2023-01-10T11:57:05;34.23;;;10.03;;
40959;SDS011;27842;52.272;8.052;2023-01-10T11:59:51;28.60;;;9.20;;
40959;SDS011;27842;52.272;8.052;2023-01-10T12:02:41;33.07;;;8.63;;
40959;SDS011;27842;52.272;8.052;2023-01-10T12:05:10;25.37;;;9.03;;
40959;SDS011;27842;52.272;8.052;2023-01-10T12:07:57;27.47;;;9.23;;
40959;SDS011;27842;52.272;8.052;2023-01-10T12:10:25;32.03;;;8.50;;
40959;SDS011;27842;52.272;8.052;2023-01-10T12:12:56;28.03;;;9.27;;
40959;SDS011;27842;52.272;8.052;2023-01-10T12:17:54;32.77;;;7.97;;
40959;SDS011;27842;52.272;8.052;2023-01-10T12:20:22;26.50;;;7.88;;
40959;SDS011;27842;52.272;8.052;2023-01-10T12:22:53;26.03;;;8.23;;
40959;SDS011;27842;52.272;8.052;2023-01-10T12:25:35;32.30;;;8.47;;
40959;SDS011;27842;52.272;8.052;2023-01-10T12:28:02;27.43;;;7.20;;
40959;SDS011;27842;52.272;8.052;2023-01-10T12:30:30;23.93;;;7.70;;
40959;SDS011;27842;52.272;8.052;2023-01-10T12:33:03;26.93;;;7.20;;
40959;SDS011;27842;52.272;8.052;2023-01-10T12:35:51;27.43;;;7.17;;
40959;SDS011;27842;52.272;8.052;2023-01-10T12:41:22;26.97;;;7.60;;
40959;SDS011;27842;52.272;8.052;2023-01-10T12:44:24;31.73;;;7.60;;
40959;SDS011;27842;52.272;8.052;2023-01-10T12:46:59;27.37;;;8.63;;
40959;SDS011;27842;52.272;8.052;2023-01-10T12:52:28;30.90;;;8.80;;
40959;SDS011;27842;52.272;8.052;2023-01-10T12:55:11;33.03;;;8.63;;
40959;SDS011;27842;52.272;8.052;2023-01-10T12:57:38;31.87;;;8.93;;
40959;SDS011;27842;52.272;8.052;2023-01-10T13:00:05;33.03;;;8.90;;
40959;SDS011;27842;52.272;8.052;2023-01-10T13:02:40;28.03;;;7.33;;
40959;SDS011;27842;52.272;8.052;2023-01-10T13:05:17;30.37;;;8.80;;
40959;SDS011;27842;52.272;8.052;2023-01-10T13:07:49;28.73;;;8.13;;
40959;SDS011;27842;52.272;8.052;2023-01-10T13:10:22;30.97;;;8.90;;
40959;SDS011;27842;52.272;8.052;2023-01-10T13:12:51;31.13;;;9.00;;
40959;SDS011;27842;52.272;8.052;2023-01-10T13:15:28;28.37;;;8.13;;
40959;SDS011;27842;52.272;8.052;2023-01-10T13:18:04;33.00;;;7.93;;
40959;SDS011;27842;52.272;8.052;2023-01-10T13:20:48;31.13;;;7.80;;
40959;SDS011;27842;52.272;8.052;2023-01-10T13:23:29;28.70;;;7.03;;
40959;SDS011;27842;52.272;8.052;2023-01-10T13:26:04;25.63;;;6.73;;
40959;SDS011;27842;52.272;8.052;2023-01-10T13:28:33;26.23;;;7.43;;
40959;SDS011;27842;52.272;8.052;2023-01-10T13:31:02;37.55;;;8.15;;
40959;SDS011;27842;52.272;8.052;2023-01-10T13:36:14;27.27;;;6.27;;
40959;SDS011;27842;52.272;8.052;2023-01-10T13:38:46;26.80;;;5.90;;
40959;SDS011;27842;52.272;8.052;2023-01-10T13:41:18;28.93;;;6.47;;
40959;SDS011;27842;52.272;8.052;2023-01-10T13:44:10;32.27;;;7.27;;
40959;SDS011;27842;52.272;8.052;2023-01-10T13:46:39;26.53;;;5.60;;
40959;SDS011;27842;52.272;8.052;2023-01-10T13:51:35;23.33;;;4.93;;
40959;SDS011;27842;52.272;8.052;2023-01-10T13:54:03;29.30;;;6.07;;
40959;SDS011;27842;52.272;8.052;2023-01-10T13:59:01;27.33;;;5.47;;
40959;SDS011;27842;52.272;8.052;2023-01-10T14:01:53;23.57;;;5.87;;
40959;SDS011;27842;52.272;8.052;2023-01-10T14:04:44;29.83;;;5.00;;
40959;SDS011;27842;52.272;8.052;2023-01-10T14:07:23;30.87;;;5.43;;
40959;SDS011;27842;52.272;8.052;2023-01-10T14:10:06;27.00;;;4.70;;
40959;SDS011;27842;52.272;8.052;2023-01-10T14:15:27;26.67;;;4.90;;
40959;SDS011;27842;52.272;8.052;2023-01-10T14:18:03;22.05;;;4.80;;
40959;SDS011;27842;52.272;8.052;2023-01-10T14:20:43;28.27;;;6.70;;
40959;SDS011;27842;52.272;8.052;2023-01-10T14:25:41;23.63;;;4.97;;
40959;SDS011;27842;52.272;8.052;2023-01-10T14:28:16;25.93;;;5.53;;
40959;SDS011;27842;52.272;8.052;2023-01-10T14:31:00;25.40;;;4.97;;
40959;SDS011;27842;52.272;8.052;2023-01-10T14:33:28;19.70;;;4.37;;
40959;SDS011;27842;52.272;8.052;2023-01-10T14:35:56;23.40;;;4.57;;
40959;SDS011;27842;52.272;8.052;2023-01-10T14:38:30;27.33;;;6.00;;
40959;SDS011;27842;52.272;8.052;2023-01-10T14:41:12;27.30;;;4.83;;
40959;SDS011;27842;52.272;8.052;2023-01-10T14:43:48;25.43;;;5.10;;
40959;SDS011;27842;52.272;8.052;2023-01-10T14:46:48;25.10;;;5.30;;
40959;SDS011;27842;52.272;8.052;2023-01-10T14:49:47;27.42;;;5.65;;
40959;SDS011;27842;52.272;8.052;2023-01-10T14:52:15;26.77;;;4.60;;
40959;SDS011;27842;52.272;8.052;2023-01-10T14:54:43;29.50;;;4.63;;
40959;SDS011;27842;52.272;8.052;2023-01-10T14:57:17;30.73;;;5.67;;
40959;SDS011;27842;52.272;8.052;2023-01-10T14:59:44;27.03;;;5.37;;
40959;SDS011;27842;52.272;8.052;2023-01-10T15:02:20;26.07;;;4.67;;
40959;SDS011;27842;52.272;8.052;2023-01-10T15:04:50;33.53;;;6.80;;
40959;SDS011;27842;52.272;8.052;2023-01-10T15:07:18;32.93;;;5.00;;
40959;SDS011;27842;52.272;8.052;2023-01-10T15:09:50;26.67;;;4.73;;
40959;SDS011;27842;52.272;8.052;2023-01-10T15:12:18;23.03;;;4.97;;
40959;SDS011;27842;52.272;8.052;2023-01-10T15:14:46;26.77;;;4.57;;
40959;SDS011;27842;52.272;8.052;2023-01-10T15:17:15;27.52;;;4.63;;
40959;SDS011;27842;52.272;8.052;2023-01-10T15:19:44;26.67;;;4.30;;
40959;SDS011;27842;52.272;8.052;2023-01-10T15:25:00;21.13;;;4.10;;
40959;SDS011;27842;52.272;8.052;2023-01-10T15:27:46;25.47;;;5.73;;
40959;SDS011;27842;52.272;8.052;2023-01-10T15:32:51;23.10;;;4.30;;
40959;SDS011;27842;52.272;8.052;2023-01-10T15:35:20;22.07;;;4.40;;
40959;SDS011;27842;52.272;8.052;2023-01-10T15:37:56;20.47;;;3.63;;
40959;SDS011;27842;52.272;8.052;2023-01-10T15:40:28;21.75;;;4.80;;
40959;SDS011;27842;52.272;8.052;2023-01-10T15:45:34;21.70;;;4.40;;
40959;SDS011;27842;52.272;8.052;2023-01-10T15:48:01;23.73;;;4.37;;
40959;SDS011;27842;52.272;8.052;2023-01-10T15:50:28;26.73;;;4.60;;
40959;SDS011;27842;52.272;8.052;2023-01-10T15:58:04;22.57;;;4.10;;
40959;SDS011;27842;52.272;8.052;2023-01-10T16:00:48;20.43;;;4.03;;
40959;SDS011;27842;52.272;8.052;2023-01-10T16:03:19;24.02;;;5.05;;
40959;SDS011;27842;52.272;8.052;2023-01-10T16:05:58;26.40;;;5.07;;
40959;SDS011;27842;52.272;8.052;2023-01-10T16:08:25;22.70;;;3.33;;
40959;SDS011;27842;52.272;8.052;2023-01-10T16:10:56;23.77;;;4.43;;
40959;SDS011;27842;52.272;8.052;2023-01-10T16:13:23;22.55;;;4.20;;
40959;SDS011;27842;52.272;8.052;2023-01-10T16:15:57;23.02;;;4.72;;
40959;SDS011;27842;52.272;8.052;2023-01-10T16:18:24;21.13;;;4.63;;
40959;SDS011;27842;52.272;8.052;2023-01-10T16:20:51;18.90;;;3.83;;
40959;SDS011;27842;52.272;8.052;2023-01-10T16:23:27;22.30;;;3.77;;
40959;SDS011;27842;52.272;8.052;2023-01-10T16:25:57;20.87;;;3.53;;
40959;SDS011;27842;52.272;8.052;2023-01-10T16:28:25;25.48;;;3.97;;
40959;SDS011;27842;52.272;8.052;2023-01-10T16:30:53;19.77;;;3.60;;
40959;SDS011;27842;52.272;8.052;2023-01-10T16:33:19;22.83;;;3.87;;
40959;SDS011;27842;52.272;8.052;2023-01-10T16:35:51;20.20;;;3.50;;
40959;SDS011;27842;52.272;8.052;2023-01-10T16:38:18;26.43;;;4.53;;
40959;SDS011;27842;52.272;8.052;2023-01-10T16:41:08;17.67;;;3.47;;
40959;SDS011;27842;52.272;8.052;2023-01-10T16:43:52;20.93;;;4.33;;
40959;SDS011;27842;52.272;8.052;2023-01-10T16:46:18;24.57;;;3.77;;
40959;SDS011;27842;52.272;8.052;2023-01-10T16:48:43;18.27;;;3.40;;
40959;SDS011;27842;52.272;8.052;2023-01-10T16:51:15;23.10;;;3.83;;
40959;SDS011;27842;52.272;8.052;2023-01-10T16:53:43;17.03;;;4.00;;
40959;SDS011;27842;52.272;8.052;2023-01-10T16:56:19;22.90;;;4.17;;
40959;SDS011;27842;52.272;8.052;2023-01-10T16:58:46;17.07;;;3.13;;
40959;SDS011;27842;52.272;8.052;2023-01-10T17:01:17;18.90;;;2.93;;
40959;SDS011;27842;52.272;8.052;2023-01-10T17:03:44;21.73;;;3.60;;
40959;SDS011;27842;52.272;8.052;2023-01-10T17:06:11;22.07;;;4.33;;
40959;SDS011;27842;52.272;8.052;2023-01-10T17:08:42;22.77;;;3.87;;
40959;SDS011;27842;52.272;8.052;2023-01-10T17:11:14;18.97;;;3.77;;
40959;SDS011;27842;52.272;8.052;2023-01-10T17:13:43;23.40;;;4.63;;
40959;SDS011;27842;52.272;8.052;2023-01-10T17:16:19;18.87;;;3.47;;
40959;SDS011;27842;52.272;8.052;2023-01-10T17:18:45;17.03;;;3.40;;
40959;SDS011;27842;52.272;8.052;2023-01-10T17:21:12;15.90;;;3.63;;
40959;SDS011;27842;52.272;8.052;2023-01-10T17:23:43;15.37;;;3.00;;
40959;SDS011;27842;52.272;8.052;2023-01-10T17:26:11;17.17;;;3.23;;
40959;SDS011;27842;52.272;8.052;2023-01-10T17:28:38;20.20;;;3.83;;
40959;SDS011;27842;52.272;8.052;2023-01-10T17:31:05;17.00;;;3.33;;